sensor_id;sensor_type;location;lat;lon;timestamp;P1;durP1;ratioP1;P2;durP2;ratioP2
51467;SDS011;37545;45.302;-122.946;2023-05-10T00:01:44;1.42;;;0.68;;
51467;SDS011;37545;45.302;-122.946;2023-05-10T00:04:13;1.40;;;0.60;;
51467;SDS011;37545;45.302;-122.946;2023-05-10T00:06:41;1.52;;;0.70;;
51467;SDS011;37545;45.302;-122.946;2023-05-10T00:09:10;0.93;;;0.70;;
51467;SDS011;37545;45.302;-122.946;2023-05-10T00:11:39;1.67;;;0.60;;
51467;SDS011;37545;45.302;-122.946;2023-05-10T00:14:09;2.85;;;0.80;;
51467;SDS011;37545;45.302;-122.946;2023-05-10T00:16:37;1.40;;;0.77;;
51467;SDS011;37545;45.302;-122.946;2023-05-10T00:19:06;1.48;;;0.90;;
51467;SDS011;37545;45.302;-122.946;2023-05-10T00:21:35;0.80;;;0.60;;
51467;SDS011;37545;45.302;-122.946;2023-05-10T00:24:04;1.02;;;0.60;;
51467;SDS011;37545;45.302;-122.946;2023-05-10T00:26:32;2.53;;;0.75;;
51467;SDS011;37545;45.302;-122.946;2023-05-10T00:29:01;1.25;;;0.80;;
51467;SDS011;37545;45.302;-122.946;2023-05-10T00:31:31;1.60;;;0.70;;
51467;SDS011;37545;45.302;-122.946;2023-05-10T00:34:00;1.00;;;0.70;;
51467;SDS011;37545;45.302;-122.946;2023-05-10T00:36:28;1.63;;;0.90;;
51467;SDS011;37545;45.302;-122.946;2023-05-10T00:38:57;1.33;;;0.70;;
51467;SDS011;37545;45.302;-122.946;2023-05-10T00:41:26;2.00;;;0.88;;
51467;SDS011;37545;45.302;-122.946;2023-05-10T00:43:55;2.20;;;0.80;;
51467;SDS011;37545;45.302;-122.946;2023-05-10T00:46:23;1.60;;;0.93;;
51467;SDS011;37545;45.302;-122.946;2023-05-10T00:48:54;1.20;;;0.88;;
51467;SDS011;37545;45.302;-122.946;2023-05-10T00:51:22;1.58;;;0.70;;
51467;SDS011;37545;45.302;-122.946;2023-05-10T00:53:51;1.20;;;0.70;;
51467;SDS011;37545;45.302;-122.946;2023-05-10T00:56:21;1.27;;;0.70;;
51467;SDS011;37545;45.302;-122.946;2023-05-10T00:58:50;1.55;;;0.80;;
51467;SDS011;37545;45.302;-122.946;2023-05-10T01:01:19;1.58;;;0.90;;
51467;SDS011;37545;45.302;-122.946;2023-05-10T01:03:47;2.13;;;0.82;;
51467;SDS011;37545;45.302;-122.946;2023-05-10T01:06:18;2.95;;;0.98;;
51467;SDS011;37545;45.302;-122.946;2023-05-10T01:08:47;1.92;;;1.30;;
51467;SDS011;37545;45.302;-122.946;2023-05-10T01:11:16;3.55;;;0.90;;
51467;SDS011;37545;45.302;-122.946;2023-05-10T01:13:45;1.13;;;0.75;;
51467;SDS011;37545;45.302;-122.946;2023-05-10T01:16:20;2.72;;;0.88;;
51467;SDS011;37545;45.302;-122.946;2023-05-10T01:18:48;1.13;;;1.00;;
51467;SDS011;37545;45.302;-122.946;2023-05-10T01:21:21;2.33;;;1.02;;
51467;SDS011;37545;45.302;-122.946;2023-05-10T01:24:12;3.05;;;0.90;;
51467;SDS011;37545;45.302;-122.946;2023-05-10T01:33:05;1.83;;;1.05;;
51467;SDS011;37545;45.302;-122.946;2023-05-10T01:35:40;1.63;;;1.00;;
51467;SDS011;37545;45.302;-122.946;2023-05-10T01:38:15;1.92;;;0.90;;
51467;SDS011;37545;45.302;-122.946;2023-05-10T01:40:48;1.73;;;0.68;;
51467;SDS011;37545;45.302;-122.946;2023-05-10T01:43:28;3.05;;;1.00;;
51467;SDS011;37545;45.302;-122.946;2023-05-10T01:46:06;1.88;;;0.88;;
51467;SDS011;37545;45.302;-122.946;2023-05-10T01:48:40;1.77;;;0.82;;
51467;SDS011;37545;45.302;-122.946;2023-05-10T01:51:14;1.65;;;0.70;;
51467;SDS011;37545;45.302;-122.946;2023-05-10T01:53:58;1.35;;;0.70;;
51467;SDS011;37545;45.302;-122.946;2023-05-10T01:56:29;1.67;;;0.80;;
51467;SDS011;37545;45.302;-122.946;2023-05-10T01:59:00;4.00;;;0.90;;
51467;SDS011;37545;45.302;-122.946;2023-05-10T02:01:39;0.90;;;0.70;;
51467;SDS011;37545;45.302;-122.946;2023-05-10T02:04:11;5.10;;;1.17;;
51467;SDS011;37545;45.302;-122.946;2023-05-10T02:06:43;1.40;;;0.90;;
51467;SDS011;37545;45.302;-122.946;2023-05-10T02:09:13;2.08;;;0.90;;
51467;SDS011;37545;45.302;-122.946;2023-05-10T02:11:43;1.40;;;1.00;;
51467;SDS011;37545;45.302;-122.946;2023-05-10T02:14:15;1.25;;;0.70;;
51467;SDS011;37545;45.302;-122.946;2023-05-10T02:16:46;1.60;;;0.80;;
51467;SDS011;37545;45.302;-122.946;2023-05-10T02:19:17;1.98;;;0.82;;
51467;SDS011;37545;45.302;-122.946;2023-05-10T02:21:47;1.40;;;0.98;;
51467;SDS011;37545;45.302;-122.946;2023-05-10T02:24:18;1.92;;;0.80;;
51467;SDS011;37545;45.302;-122.946;2023-05-10T02:26:49;2.08;;;0.95;;
51467;SDS011;37545;45.302;-122.946;2023-05-10T02:29:18;1.10;;;0.90;;
51467;SDS011;37545;45.302;-122.946;2023-05-10T02:31:48;2.40;;;0.90;;
51467;SDS011;37545;45.302;-122.946;2023-05-10T02:34:21;2.75;;;0.80;;
51467;SDS011;37545;45.302;-122.946;2023-05-10T02:36:53;1.30;;;1.00;;
51467;SDS011;37545;45.302;-122.946;2023-05-10T02:39:22;2.13;;;0.60;;
51467;SDS011;37545;45.302;-122.946;2023-05-10T02:41:52;3.22;;;1.00;;
51467;SDS011;37545;45.302;-122.946;2023-05-10T02:44:22;1.35;;;0.70;;
51467;SDS011;37545;45.302;-122.946;2023-05-10T02:46:52;1.27;;;0.68;;
51467;SDS011;37545;45.302;-122.946;2023-05-10T02:49:23;2.28;;;1.30;;
51467;SDS011;37545;45.302;-122.946;2023-05-10T02:51:54;5.05;;;0.93;;
51467;SDS011;37545;45.302;-122.946;2023-05-10T02:54:29;1.00;;;0.60;;
51467;SDS011;37545;45.302;-122.946;2023-05-10T02:57:15;2.42;;;0.80;;
51467;SDS011;37545;45.302;-122.946;2023-05-10T02:59:45;0.98;;;0.60;;
51467;SDS011;37545;45.302;-122.946;2023-05-10T03:02:13;1.60;;;0.80;;
51467;SDS011;37545;45.302;-122.946;2023-05-10T03:04:44;3.45;;;0.70;;
51467;SDS011;37545;45.302;-122.946;2023-05-10T03:07:12;1.77;;;0.70;;
51467;SDS011;37545;45.302;-122.946;2023-05-10T03:09:41;1.98;;;0.88;;
51467;SDS011;37545;45.302;-122.946;2023-05-10T03:12:11;3.08;;;0.80;;
51467;SDS011;37545;45.302;-122.946;2023-05-10T03:14:49;1.08;;;0.60;;
51467;SDS011;37545;45.302;-122.946;2023-05-10T03:17:25;1.35;;;0.70;;
51467;SDS011;37545;45.302;-122.946;2023-05-10T03:20:03;3.67;;;0.77;;
51467;SDS011;37545;45.302;-122.946;2023-05-10T03:22:37;2.05;;;0.82;;
51467;SDS011;37545;45.302;-122.946;2023-05-10T03:25:08;0.60;;;0.55;;
51467;SDS011;37545;45.302;-122.946;2023-05-10T03:27:40;3.67;;;0.85;;
51467;SDS011;37545;45.302;-122.946;2023-05-10T03:30:11;1.63;;;0.98;;
51467;SDS011;37545;45.302;-122.946;2023-05-10T03:32:40;2.90;;;1.52;;
51467;SDS011;37545;45.302;-122.946;2023-05-10T03:35:11;2.90;;;1.10;;
51467;SDS011;37545;45.302;-122.946;2023-05-10T03:37:40;2.65;;;1.48;;
51467;SDS011;37545;45.302;-122.946;2023-05-10T03:40:09;5.60;;;1.48;;
51467;SDS011;37545;45.302;-122.946;2023-05-10T03:42:38;2.13;;;0.70;;
51467;SDS011;37545;45.302;-122.946;2023-05-10T03:45:07;0.70;;;0.43;;
51467;SDS011;37545;45.302;-122.946;2023-05-10T03:47:40;1.48;;;0.88;;
51467;SDS011;37545;45.302;-122.946;2023-05-10T03:50:10;2.33;;;1.15;;
51467;SDS011;37545;45.302;-122.946;2023-05-10T03:52:39;3.28;;;0.80;;
51467;SDS011;37545;45.302;-122.946;2023-05-10T03:55:07;1.35;;;0.80;;
51467;SDS011;37545;45.302;-122.946;2023-05-10T03:57:36;2.95;;;1.00;;
51467;SDS011;37545;45.302;-122.946;2023-05-10T04:00:05;1.17;;;0.73;;
51467;SDS011;37545;45.302;-122.946;2023-05-10T04:02:35;2.35;;;1.00;;
51467;SDS011;37545;45.302;-122.946;2023-05-10T04:05:03;4.85;;;0.80;;
51467;SDS011;37545;45.302;-122.946;2023-05-10T04:07:34;3.33;;;1.95;;
51467;SDS011;37545;45.302;-122.946;2023-05-10T04:10:03;0.75;;;0.68;;
51467;SDS011;37545;45.302;-122.946;2023-05-10T04:12:32;2.90;;;0.90;;
51467;SDS011;37545;45.302;-122.946;2023-05-10T04:15:00;1.67;;;0.95;;
51467;SDS011;37545;45.302;-122.946;2023-05-10T04:17:29;2.50;;;1.25;;
51467;SDS011;37545;45.302;-122.946;2023-05-10T04:19:57;5.55;;;1.13;;
51467;SDS011;37545;45.302;-122.946;2023-05-10T04:22:26;2.65;;;0.93;;
51467;SDS011;37545;45.302;-122.946;2023-05-10T04:24:56;0.75;;;0.70;;
51467;SDS011;37545;45.302;-122.946;2023-05-10T04:27:25;6.45;;;1.75;;
51467;SDS011;37545;45.302;-122.946;2023-05-10T04:29:53;0.77;;;0.60;;
51467;SDS011;37545;45.302;-122.946;2023-05-10T04:32:22;1.23;;;0.93;;
51467;SDS011;37545;45.302;-122.946;2023-05-10T04:34:50;1.88;;;0.90;;
51467;SDS011;37545;45.302;-122.946;2023-05-10T04:37:19;2.00;;;1.08;;
51467;SDS011;37545;45.302;-122.946;2023-05-10T04:39:48;2.22;;;0.77;;
51467;SDS011;37545;45.302;-122.946;2023-05-10T04:42:18;1.63;;;0.80;;
51467;SDS011;37545;45.302;-122.946;2023-05-10T04:44:47;1.08;;;0.70;;
51467;SDS011;37545;45.302;-122.946;2023-05-10T04:47:15;2.30;;;0.98;;
51467;SDS011;37545;45.302;-122.946;2023-05-10T04:49:44;1.55;;;0.68;;
51467;SDS011;37545;45.302;-122.946;2023-05-10T04:52:13;1.45;;;0.73;;
51467;SDS011;37545;45.302;-122.946;2023-05-10T04:54:42;1.48;;;0.80;;
51467;SDS011;37545;45.302;-122.946;2023-05-10T04:57:11;1.17;;;0.80;;
51467;SDS011;37545;45.302;-122.946;2023-05-10T04:59:41;2.38;;;1.20;;
51467;SDS011;37545;45.302;-122.946;2023-05-10T05:02:10;4.25;;;1.10;;
51467;SDS011;37545;45.302;-122.946;2023-05-10T05:04:39;3.53;;;1.05;;
51467;SDS011;37545;45.302;-122.946;2023-05-10T05:07:07;3.05;;;1.02;;
51467;SDS011;37545;45.302;-122.946;2023-05-10T05:09:36;2.33;;;0.90;;
51467;SDS011;37545;45.302;-122.946;2023-05-10T05:12:04;1.83;;;0.85;;
51467;SDS011;37545;45.302;-122.946;2023-05-10T05:14:33;2.15;;;0.95;;
51467;SDS011;37545;45.302;-122.946;2023-05-10T05:17:04;4.68;;;1.42;;
51467;SDS011;37545;45.302;-122.946;2023-05-10T05:19:44;5.45;;;1.70;;
51467;SDS011;37545;45.302;-122.946;2023-05-10T05:22:16;4.40;;;1.63;;
51467;SDS011;37545;45.302;-122.946;2023-05-10T05:24:45;3.08;;;1.50;;
51467;SDS011;37545;45.302;-122.946;2023-05-10T05:27:13;3.38;;;0.80;;
51467;SDS011;37545;45.302;-122.946;2023-05-10T05:29:42;3.78;;;1.42;;
51467;SDS011;37545;45.302;-122.946;2023-05-10T05:32:12;4.38;;;1.40;;
51467;SDS011;37545;45.302;-122.946;2023-05-10T05:34:40;2.47;;;1.30;;
51467;SDS011;37545;45.302;-122.946;2023-05-10T05:37:12;5.65;;;1.40;;
51467;SDS011;37545;45.302;-122.946;2023-05-10T05:39:41;4.03;;;1.40;;
51467;SDS011;37545;45.302;-122.946;2023-05-10T05:42:10;8.48;;;1.13;;
51467;SDS011;37545;45.302;-122.946;2023-05-10T05:44:40;6.85;;;1.75;;
51467;SDS011;37545;45.302;-122.946;2023-05-10T05:47:08;3.58;;;1.45;;
51467;SDS011;37545;45.302;-122.946;2023-05-10T05:49:39;6.05;;;1.58;;
51467;SDS011;37545;45.302;-122.946;2023-05-10T05:52:11;1.75;;;1.02;;
51467;SDS011;37545;45.302;-122.946;2023-05-10T05:54:40;4.38;;;1.10;;
51467;SDS011;37545;45.302;-122.946;2023-05-10T05:57:08;3.78;;;1.00;;
51467;SDS011;37545;45.302;-122.946;2023-05-10T05:59:37;2.47;;;0.90;;
51467;SDS011;37545;45.302;-122.946;2023-05-10T06:02:09;1.67;;;0.93;;
51467;SDS011;37545;45.302;-122.946;2023-05-10T06:04:39;1.25;;;0.73;;
51467;SDS011;37545;45.302;-122.946;2023-05-10T06:07:08;5.65;;;1.02;;
51467;SDS011;37545;45.302;-122.946;2023-05-10T06:09:36;6.32;;;1.13;;
51467;SDS011;37545;45.302;-122.946;2023-05-10T06:12:05;0.80;;;0.50;;
51467;SDS011;37545;45.302;-122.946;2023-05-10T06:14:33;1.27;;;0.80;;
51467;SDS011;37545;45.302;-122.946;2023-05-10T06:17:02;0.80;;;0.60;;
51467;SDS011;37545;45.302;-122.946;2023-05-10T06:19:46;1.90;;;0.80;;
51467;SDS011;37545;45.302;-122.946;2023-05-10T06:22:14;3.97;;;0.80;;
51467;SDS011;37545;45.302;-122.946;2023-05-10T06:24:43;1.42;;;0.70;;
51467;SDS011;37545;45.302;-122.946;2023-05-10T06:27:12;1.25;;;0.70;;
51467;SDS011;37545;45.302;-122.946;2023-05-10T06:29:40;0.93;;;0.50;;
51467;SDS011;37545;45.302;-122.946;2023-05-10T06:32:09;1.90;;;0.80;;
51467;SDS011;37545;45.302;-122.946;2023-05-10T06:34:37;1.65;;;0.68;;
51467;SDS011;37545;45.302;-122.946;2023-05-10T06:37:08;1.58;;;0.63;;
51467;SDS011;37545;45.302;-122.946;2023-05-10T06:39:36;1.75;;;0.65;;
51467;SDS011;37545;45.302;-122.946;2023-05-10T06:42:05;2.75;;;0.70;;
51467;SDS011;37545;45.302;-122.946;2023-05-10T06:44:33;3.50;;;0.60;;
51467;SDS011;37545;45.302;-122.946;2023-05-10T06:47:02;2.13;;;0.57;;
51467;SDS011;37545;45.302;-122.946;2023-05-10T06:49:30;0.98;;;0.55;;
51467;SDS011;37545;45.302;-122.946;2023-05-10T06:51:59;0.82;;;0.50;;
51467;SDS011;37545;45.302;-122.946;2023-05-10T06:54:29;0.80;;;0.50;;
51467;SDS011;37545;45.302;-122.946;2023-05-10T06:56:57;1.13;;;0.70;;
51467;SDS011;37545;45.302;-122.946;2023-05-10T06:59:26;0.50;;;0.40;;
51467;SDS011;37545;45.302;-122.946;2023-05-10T07:01:55;1.98;;;0.75;;
51467;SDS011;37545;45.302;-122.946;2023-05-10T07:04:23;4.60;;;0.50;;
51467;SDS011;37545;45.302;-122.946;2023-05-10T07:06:52;0.82;;;0.57;;
51467;SDS011;37545;45.302;-122.946;2023-05-10T07:09:21;1.13;;;0.68;;
51467;SDS011;37545;45.302;-122.946;2023-05-10T07:11:51;2.20;;;0.50;;
51467;SDS011;37545;45.302;-122.946;2023-05-10T07:14:20;1.42;;;0.50;;
51467;SDS011;37545;45.302;-122.946;2023-05-10T07:16:49;1.00;;;0.70;;
51467;SDS011;37545;45.302;-122.946;2023-05-10T07:19:17;0.52;;;0.30;;
51467;SDS011;37545;45.302;-122.946;2023-05-10T07:21:46;1.45;;;0.40;;
51467;SDS011;37545;45.302;-122.946;2023-05-10T07:24:14;0.47;;;0.30;;
51467;SDS011;37545;45.302;-122.946;2023-05-10T07:26:43;4.93;;;0.82;;
51467;SDS011;37545;45.302;-122.946;2023-05-10T07:29:13;2.90;;;0.68;;
51467;SDS011;37545;45.302;-122.946;2023-05-10T07:31:42;1.23;;;0.60;;
51467;SDS011;37545;45.302;-122.946;2023-05-10T07:34:10;0.88;;;0.40;;
51467;SDS011;37545;45.302;-122.946;2023-05-10T07:36:39;4.70;;;0.68;;
51467;SDS011;37545;45.302;-122.946;2023-05-10T07:39:07;4.43;;;0.65;;
51467;SDS011;37545;45.302;-122.946;2023-05-10T07:41:36;0.75;;;0.50;;
51467;SDS011;37545;45.302;-122.946;2023-05-10T07:44:05;0.32;;;0.32;;
51467;SDS011;37545;45.302;-122.946;2023-05-10T07:46:35;3.17;;;0.50;;
51467;SDS011;37545;45.302;-122.946;2023-05-10T07:49:04;2.08;;;0.70;;
51467;SDS011;37545;45.302;-122.946;2023-05-10T07:51:32;1.80;;;0.57;;
51467;SDS011;37545;45.302;-122.946;2023-05-10T07:54:01;0.75;;;0.43;;
51467;SDS011;37545;45.302;-122.946;2023-05-10T07:56:30;1.73;;;0.75;;
51467;SDS011;37545;45.302;-122.946;2023-05-10T07:59:00;0.73;;;0.50;;
51467;SDS011;37545;45.302;-122.946;2023-05-10T08:01:30;0.75;;;0.30;;
51467;SDS011;37545;45.302;-122.946;2023-05-10T08:04:01;4.35;;;0.70;;
51467;SDS011;37545;45.302;-122.946;2023-05-10T08:06:29;2.58;;;0.60;;
51467;SDS011;37545;45.302;-122.946;2023-05-10T08:08:58;0.85;;;0.50;;
51467;SDS011;37545;45.302;-122.946;2023-05-10T08:11:26;3.30;;;0.60;;
51467;SDS011;37545;45.302;-122.946;2023-05-10T08:13:55;2.53;;;0.57;;
51467;SDS011;37545;45.302;-122.946;2023-05-10T08:16:24;2.60;;;0.68;;
51467;SDS011;37545;45.302;-122.946;2023-05-10T08:18:52;0.85;;;0.50;;
51467;SDS011;37545;45.302;-122.946;2023-05-10T08:21:23;2.10;;;0.60;;
51467;SDS011;37545;45.302;-122.946;2023-05-10T08:23:51;1.42;;;0.77;;
51467;SDS011;37545;45.302;-122.946;2023-05-10T08:26:20;1.63;;;1.10;;
51467;SDS011;37545;45.302;-122.946;2023-05-10T08:28:49;0.55;;;0.40;;
51467;SDS011;37545;45.302;-122.946;2023-05-10T08:31:17;0.88;;;0.55;;
51467;SDS011;37545;45.302;-122.946;2023-05-10T08:33:46;0.60;;;0.50;;
51467;SDS011;37545;45.302;-122.946;2023-05-10T08:36:14;0.57;;;0.47;;
51467;SDS011;37545;45.302;-122.946;2023-05-10T08:38:49;0.75;;;0.50;;
51467;SDS011;37545;45.302;-122.946;2023-05-10T08:41:19;1.73;;;0.47;;
51467;SDS011;37545;45.302;-122.946;2023-05-10T08:43:50;1.73;;;0.73;;
51467;SDS011;37545;45.302;-122.946;2023-05-10T08:46:19;0.95;;;0.57;;
51467;SDS011;37545;45.302;-122.946;2023-05-10T08:48:49;2.83;;;0.70;;
51467;SDS011;37545;45.302;-122.946;2023-05-10T08:51:19;1.02;;;0.70;;
51467;SDS011;37545;45.302;-122.946;2023-05-10T08:53:54;0.98;;;0.47;;
51467;SDS011;37545;45.302;-122.946;2023-05-10T08:56:22;2.97;;;0.52;;
51467;SDS011;37545;45.302;-122.946;2023-05-10T08:58:51;1.35;;;0.40;;
51467;SDS011;37545;45.302;-122.946;2023-05-10T09:01:20;3.13;;;0.60;;
51467;SDS011;37545;45.302;-122.946;2023-05-10T09:03:49;1.30;;;0.60;;
51467;SDS011;37545;45.302;-122.946;2023-05-10T09:06:19;3.95;;;1.08;;
51467;SDS011;37545;45.302;-122.946;2023-05-10T09:08:48;0.50;;;0.50;;
51467;SDS011;37545;45.302;-122.946;2023-05-10T09:11:18;1.80;;;0.75;;
51467;SDS011;37545;45.302;-122.946;2023-05-10T09:13:48;1.10;;;0.60;;
51467;SDS011;37545;45.302;-122.946;2023-05-10T09:16:18;4.20;;;0.90;;
51467;SDS011;37545;45.302;-122.946;2023-05-10T09:18:47;3.75;;;1.15;;
51467;SDS011;37545;45.302;-122.946;2023-05-10T09:21:16;4.50;;;0.93;;
51467;SDS011;37545;45.302;-122.946;2023-05-10T09:23:47;3.42;;;0.80;;
51467;SDS011;37545;45.302;-122.946;2023-05-10T09:26:23;1.50;;;0.70;;
51467;SDS011;37545;45.302;-122.946;2023-05-10T09:31:21;1.58;;;0.93;;
51467;SDS011;37545;45.302;-122.946;2023-05-10T09:33:50;1.25;;;0.88;;
51467;SDS011;37545;45.302;-122.946;2023-05-10T09:36:19;1.25;;;0.65;;
51467;SDS011;37545;45.302;-122.946;2023-05-10T09:38:48;1.50;;;0.68;;
51467;SDS011;37545;45.302;-122.946;2023-05-10T09:41:18;1.17;;;0.65;;
51467;SDS011;37545;45.302;-122.946;2023-05-10T09:43:49;3.47;;;1.17;;
51467;SDS011;37545;45.302;-122.946;2023-05-10T09:46:22;2.08;;;1.00;;
51467;SDS011;37545;45.302;-122.946;2023-05-10T09:48:51;4.43;;;0.90;;
51467;SDS011;37545;45.302;-122.946;2023-05-10T09:51:20;2.28;;;0.80;;
51467;SDS011;37545;45.302;-122.946;2023-05-10T09:53:49;4.93;;;1.10;;
51467;SDS011;37545;45.302;-122.946;2023-05-10T09:56:37;3.47;;;1.40;;
51467;SDS011;37545;45.302;-122.946;2023-05-10T09:59:09;1.70;;;1.40;;
51467;SDS011;37545;45.302;-122.946;2023-05-10T10:01:38;2.58;;;1.27;;
51467;SDS011;37545;45.302;-122.946;2023-05-10T10:04:08;2.80;;;1.50;;
51467;SDS011;37545;45.302;-122.946;2023-05-10T10:06:38;1.80;;;1.02;;
51467;SDS011;37545;45.302;-122.946;2023-05-10T10:09:07;5.82;;;1.55;;
51467;SDS011;37545;45.302;-122.946;2023-05-10T10:11:37;3.58;;;1.10;;
51467;SDS011;37545;45.302;-122.946;2023-05-10T10:14:08;5.47;;;1.40;;
51467;SDS011;37545;45.302;-122.946;2023-05-10T10:16:38;2.80;;;1.20;;
51467;SDS011;37545;45.302;-122.946;2023-05-10T10:19:07;3.13;;;1.50;;
51467;SDS011;37545;45.302;-122.946;2023-05-10T10:21:36;1.50;;;1.13;;
51467;SDS011;37545;45.302;-122.946;2023-05-10T10:24:04;2.92;;;1.55;;
51467;SDS011;37545;45.302;-122.946;2023-05-10T10:26:33;2.00;;;1.27;;
51467;SDS011;37545;45.302;-122.946;2023-05-10T10:29:06;2.20;;;1.42;;
51467;SDS011;37545;45.302;-122.946;2023-05-10T10:31:46;4.38;;;1.75;;
51467;SDS011;37545;45.302;-122.946;2023-05-10T10:34:24;5.13;;;2.17;;
51467;SDS011;37545;45.302;-122.946;2023-05-10T10:36:55;6.60;;;2.13;;
51467;SDS011;37545;45.302;-122.946;2023-05-10T10:39:24;4.13;;;1.95;;
51467;SDS011;37545;45.302;-122.946;2023-05-10T10:41:54;3.35;;;1.77;;
51467;SDS011;37545;45.302;-122.946;2023-05-10T10:44:35;4.45;;;1.95;;
51467;SDS011;37545;45.302;-122.946;2023-05-10T10:47:21;4.75;;;1.80;;
51467;SDS011;37545;45.302;-122.946;2023-05-10T10:50:02;5.82;;;3.10;;
51467;SDS011;37545;45.302;-122.946;2023-05-10T10:52:32;4.32;;;2.35;;
51467;SDS011;37545;45.302;-122.946;2023-05-10T10:55:02;2.42;;;1.95;;
51467;SDS011;37545;45.302;-122.946;2023-05-10T10:57:33;7.20;;;2.35;;
51467;SDS011;37545;45.302;-122.946;2023-05-10T11:00:22;6.30;;;2.33;;
51467;SDS011;37545;45.302;-122.946;2023-05-10T11:02:56;8.95;;;2.83;;
51467;SDS011;37545;45.302;-122.946;2023-05-10T11:08:17;19.33;;;5.82;;
51467;SDS011;37545;45.302;-122.946;2023-05-10T11:13:34;12.25;;;4.43;;
51467;SDS011;37545;45.302;-122.946;2023-05-10T11:16:14;14.25;;;3.25;;
51467;SDS011;37545;45.302;-122.946;2023-05-10T11:18:51;7.18;;;4.13;;
51467;SDS011;37545;45.302;-122.946;2023-05-10T11:21:22;6.50;;;3.00;;
51467;SDS011;37545;45.302;-122.946;2023-05-10T11:23:51;5.20;;;2.63;;
51467;SDS011;37545;45.302;-122.946;2023-05-10T11:26:22;5.50;;;2.25;;
51467;SDS011;37545;45.302;-122.946;2023-05-10T11:28:52;8.73;;;2.58;;
51467;SDS011;37545;45.302;-122.946;2023-05-10T11:31:24;5.55;;;2.47;;
51467;SDS011;37545;45.302;-122.946;2023-05-10T11:33:53;3.35;;;2.20;;
51467;SDS011;37545;45.302;-122.946;2023-05-10T11:36:23;4.90;;;2.20;;
51467;SDS011;37545;45.302;-122.946;2023-05-10T11:38:53;4.18;;;2.30;;
51467;SDS011;37545;45.302;-122.946;2023-05-10T11:41:23;5.32;;;2.60;;
51467;SDS011;37545;45.302;-122.946;2023-05-10T11:43:52;3.50;;;1.83;;
51467;SDS011;37545;45.302;-122.946;2023-05-10T11:46:22;7.15;;;2.65;;
51467;SDS011;37545;45.302;-122.946;2023-05-10T11:48:55;7.65;;;2.00;;
51467;SDS011;37545;45.302;-122.946;2023-05-10T11:51:27;8.32;;;1.92;;
51467;SDS011;37545;45.302;-122.946;2023-05-10T11:53:56;4.65;;;2.42;;
51467;SDS011;37545;45.302;-122.946;2023-05-10T11:56:25;3.38;;;1.77;;
51467;SDS011;37545;45.302;-122.946;2023-05-10T11:58:54;2.08;;;1.40;;
51467;SDS011;37545;45.302;-122.946;2023-05-10T12:01:25;2.80;;;1.63;;
51467;SDS011;37545;45.302;-122.946;2023-05-10T12:03:55;2.92;;;1.30;;
51467;SDS011;37545;45.302;-122.946;2023-05-10T12:06:26;2.15;;;1.23;;
51467;SDS011;37545;45.302;-122.946;2023-05-10T12:08:56;1.80;;;1.25;;
51467;SDS011;37545;45.302;-122.946;2023-05-10T12:11:26;2.20;;;1.60;;
51467;SDS011;37545;45.302;-122.946;2023-05-10T12:13:55;2.70;;;1.30;;
51467;SDS011;37545;45.302;-122.946;2023-05-10T12:16:26;3.97;;;1.77;;
51467;SDS011;37545;45.302;-122.946;2023-05-10T12:18:57;5.47;;;1.70;;
51467;SDS011;37545;45.302;-122.946;2023-05-10T12:21:27;4.22;;;1.42;;
51467;SDS011;37545;45.302;-122.946;2023-05-10T12:23:59;1.63;;;1.23;;
51467;SDS011;37545;45.302;-122.946;2023-05-10T12:26:29;2.53;;;1.80;;
51467;SDS011;37545;45.302;-122.946;2023-05-10T12:29:11;1.77;;;1.42;;
51467;SDS011;37545;45.302;-122.946;2023-05-10T12:31:55;2.60;;;1.58;;
51467;SDS011;37545;45.302;-122.946;2023-05-10T12:34:25;2.15;;;1.42;;
51467;SDS011;37545;45.302;-122.946;2023-05-10T12:36:54;3.60;;;1.60;;
51467;SDS011;37545;45.302;-122.946;2023-05-10T12:39:23;2.67;;;1.52;;
51467;SDS011;37545;45.302;-122.946;2023-05-10T12:41:52;4.32;;;1.20;;
51467;SDS011;37545;45.302;-122.946;2023-05-10T12:44:20;1.10;;;0.82;;
51467;SDS011;37545;45.302;-122.946;2023-05-10T12:46:49;2.05;;;1.00;;
51467;SDS011;37545;45.302;-122.946;2023-05-10T12:49:19;3.63;;;1.33;;
51467;SDS011;37545;45.302;-122.946;2023-05-10T12:51:47;3.47;;;1.52;;
51467;SDS011;37545;45.302;-122.946;2023-05-10T12:54:16;2.83;;;1.65;;
51467;SDS011;37545;45.302;-122.946;2023-05-10T12:56:44;3.65;;;1.42;;
51467;SDS011;37545;45.302;-122.946;2023-05-10T12:59:13;4.15;;;1.50;;
51467;SDS011;37545;45.302;-122.946;2023-05-10T13:01:42;1.92;;;0.98;;
51467;SDS011;37545;45.302;-122.946;2023-05-10T13:04:10;6.00;;;1.65;;
51467;SDS011;37545;45.302;-122.946;2023-05-10T13:06:40;1.52;;;1.08;;
51467;SDS011;37545;45.302;-122.946;2023-05-10T13:09:09;2.15;;;1.40;;
51467;SDS011;37545;45.302;-122.946;2023-05-10T13:11:37;4.13;;;1.38;;
51467;SDS011;37545;45.302;-122.946;2023-05-10T13:14:06;3.08;;;1.08;;
51467;SDS011;37545;45.302;-122.946;2023-05-10T13:16:34;3.15;;;1.88;;
51467;SDS011;37545;45.302;-122.946;2023-05-10T13:19:03;3.45;;;1.50;;
51467;SDS011;37545;45.302;-122.946;2023-05-10T13:21:31;2.42;;;1.48;;
51467;SDS011;37545;45.302;-122.946;2023-05-10T13:24:02;3.15;;;1.50;;
51467;SDS011;37545;45.302;-122.946;2023-05-10T13:26:31;1.77;;;1.23;;
51467;SDS011;37545;45.302;-122.946;2023-05-10T13:28:59;2.38;;;1.02;;
51467;SDS011;37545;45.302;-122.946;2023-05-10T13:31:28;3.50;;;1.30;;
51467;SDS011;37545;45.302;-122.946;2023-05-10T13:33:57;5.45;;;1.10;;
51467;SDS011;37545;45.302;-122.946;2023-05-10T13:36:26;4.35;;;1.30;;
51467;SDS011;37545;45.302;-122.946;2023-05-10T13:39:09;5.22;;;1.58;;
51467;SDS011;37545;45.302;-122.946;2023-05-10T13:41:38;3.35;;;1.48;;
51467;SDS011;37545;45.302;-122.946;2023-05-10T13:44:07;4.10;;;1.48;;
51467;SDS011;37545;45.302;-122.946;2023-05-10T13:46:39;3.67;;;1.48;;
51467;SDS011;37545;45.302;-122.946;2023-05-10T13:49:08;6.03;;;1.60;;
51467;SDS011;37545;45.302;-122.946;2023-05-10T13:51:37;2.17;;;1.17;;
51467;SDS011;37545;45.302;-122.946;2023-05-10T13:54:05;5.32;;;1.50;;
51467;SDS011;37545;45.302;-122.946;2023-05-10T13:56:36;3.05;;;1.20;;
51467;SDS011;37545;45.302;-122.946;2023-05-10T13:59:04;1.83;;;0.93;;
51467;SDS011;37545;45.302;-122.946;2023-05-10T14:01:33;3.40;;;0.95;;
51467;SDS011;37545;45.302;-122.946;2023-05-10T14:04:02;1.10;;;0.90;;
51467;SDS011;37545;45.302;-122.946;2023-05-10T14:06:30;1.30;;;0.88;;
51467;SDS011;37545;45.302;-122.946;2023-05-10T14:08:59;1.38;;;0.90;;
51467;SDS011;37545;45.302;-122.946;2023-05-10T14:11:28;3.30;;;0.88;;
51467;SDS011;37545;45.302;-122.946;2023-05-10T14:13:58;5.80;;;1.08;;
51467;SDS011;37545;45.302;-122.946;2023-05-10T14:16:27;5.85;;;1.20;;
51467;SDS011;37545;45.302;-122.946;2023-05-10T14:18:56;6.50;;;1.48;;
51467;SDS011;37545;45.302;-122.946;2023-05-10T14:21:24;4.85;;;1.35;;
51467;SDS011;37545;45.302;-122.946;2023-05-10T14:23:53;6.13;;;1.65;;
51467;SDS011;37545;45.302;-122.946;2023-05-10T14:26:22;4.65;;;1.20;;
51467;SDS011;37545;45.302;-122.946;2023-05-10T14:28:50;2.17;;;1.05;;
51467;SDS011;37545;45.302;-122.946;2023-05-10T14:31:20;3.65;;;1.58;;
51467;SDS011;37545;45.302;-122.946;2023-05-10T14:33:50;2.28;;;1.30;;
51467;SDS011;37545;45.302;-122.946;2023-05-10T14:36:23;2.75;;;1.50;;
51467;SDS011;37545;45.302;-122.946;2023-05-10T14:38:51;2.60;;;1.27;;
51467;SDS011;37545;45.302;-122.946;2023-05-10T14:41:20;6.03;;;1.55;;